createdAt,value
2018-08-06T00:00:35.396Z,0
2018-08-06T00:01:36.918Z,0
2018-08-06T00:02:38.600Z,0
2018-08-06T00:03:40.185Z,0
2018-08-06T00:04:41.825Z,0
2018-08-06T00:05:43.389Z,0
2018-08-06T00:06:45.149Z,0
2018-08-06T00:07:46.714Z,0
2018-08-06T00:08:48.422Z,0
2018-08-06T00:09:49.928Z,0
2018-08-06T00:10:51.719Z,0
2018-08-06T00:11:53.210Z,0
2018-08-06T00:12:55.013Z,0
2018-08-06T00:13:56.608Z,0
2018-08-06T00:14:58.352Z,0
2018-08-06T00:15:59.917Z,0
2018-08-06T00:17:01.436Z,0
2018-08-06T00:18:03.236Z,0
2018-08-06T00:19:04.761Z,0
2018-08-06T00:20:06.327Z,0
2018-08-06T00:21:07.984Z,0
2018-08-06T00:22:09.504Z,0
2018-08-06T00:23:11.107Z,0
2018-08-06T00:24:12.677Z,0
2018-08-06T00:25:14.253Z,0
2018-08-06T00:26:15.789Z,0
2018-08-06T00:27:17.425Z,0
2018-08-06T00:28:18.980Z,0
2018-08-06T00:29:20.729Z,0
2018-08-06T00:30:22.280Z,0
2018-08-06T00:31:25.412Z,0
2018-08-06T00:32:26.942Z,0
2018-08-06T00:33:28.459Z,0
2018-08-06T00:34:30.167Z,0
2018-08-06T00:35:31.762Z,0
2018-08-06T00:36:33.239Z,0
2018-08-06T00:37:35.001Z,0
2018-08-06T00:38:36.570Z,0
2018-08-06T00:39:38.177Z,0
2018-08-06T00:40:39.696Z,0
2018-08-06T00:41:41.531Z,0
2018-08-06T00:42:43.007Z,0
2018-08-06T00:43:44.785Z,0
2018-08-06T00:44:46.338Z,0
2018-08-06T00:45:48.103Z,0
2018-08-06T00:46:49.647Z,0
2018-08-06T00:47:51.404Z,0
2018-08-06T00:48:52.957Z,0
2018-08-06T00:49:54.630Z,0
2018-08-06T00:50:56.193Z,0
2018-08-06T00:51:57.801Z,0
2018-08-06T00:52:59.382Z,0
2018-08-06T00:54:00.923Z,0
2018-08-06T00:55:02.704Z,0
2018-08-06T00:56:04.270Z,0
2018-08-06T00:57:05.833Z,0
2018-08-06T00:58:07.688Z,0
2018-08-06T00:59:09.202Z,0
2018-08-06T01:00:10.873Z,0
2018-08-06T01:01:12.469Z,0
2018-08-06T01:02:14.201Z,0
2018-08-06T01:03:15.996Z,0
2018-08-06T01:04:17.692Z,0
2018-08-06T01:05:19.239Z,0
2018-08-06T01:06:21.017Z,0
2018-08-06T01:07:22.480Z,0
2018-08-06T01:08:24.256Z,0
2018-08-06T01:09:25.776Z,0
2018-08-06T01:10:27.397Z,0
2018-08-06T01:11:28.979Z,0
2018-08-06T01:12:30.772Z,0
2018-08-06T01:13:32.341Z,0
2018-08-06T01:14:33.872Z,0
2018-08-06T01:15:35.588Z,0
2018-08-06T01:16:37.155Z,0
2018-08-06T01:17:38.708Z,0
2018-08-06T01:18:40.560Z,0
2018-08-06T01:19:42.071Z,0
2018-08-06T01:20:43.806Z,0
2018-08-06T01:21:45.332Z,0
2018-08-06T01:22:47.130Z,0
2018-08-06T01:23:48.679Z,0
2018-08-06T01:24:50.391Z,0
2018-08-06T01:25:51.923Z,0
2018-08-06T01:26:56.026Z,0
2018-08-06T01:27:57.592Z,0
2018-08-06T01:28:59.178Z,0
2018-08-06T01:30:00.769Z,0
2018-08-06T01:31:02.374Z,0
2018-08-06T01:32:03.896Z,0
2018-08-06T01:33:05.498Z,0
2018-08-06T01:34:07.267Z,0
2018-08-06T01:35:08.798Z,0
2018-08-06T01:36:10.384Z,0
2018-08-06T01:37:12.169Z,0
2018-08-06T01:38:13.766Z,0
2018-08-06T01:39:15.279Z,0
2018-08-06T01:40:16.898Z,0
2018-08-06T01:41:18.469Z,0
2018-08-06T01:42:20.001Z,0
2018-08-06T01:43:21.662Z,0
2018-08-06T01:44:23.201Z,0
2018-08-06T01:45:24.770Z,0
2018-08-06T01:46:26.574Z,0
2018-08-06T01:47:28.137Z,0
2018-08-06T01:48:29.694Z,0
2018-08-06T01:49:31.298Z,0
2018-08-06T01:50:32.845Z,0
2018-08-06T01:51:34.661Z,0
2018-08-06T01:52:36.222Z,0
2018-08-06T01:53:37.743Z,0
2018-08-06T01:54:39.582Z,0
2018-08-06T01:55:41.130Z,0
2018-08-06T01:56:42.709Z,0
2018-08-06T01:57:44.448Z,0
2018-08-06T01:58:46.024Z,0
2018-08-06T01:59:47.542Z,0
2018-08-06T02:00:49.180Z,0
2018-08-06T02:01:50.775Z,0
2018-08-06T02:02:52.340Z,0
2018-08-06T02:03:54.164Z,0
2018-08-06T02:04:55.738Z,0
2018-08-06T02:05:57.267Z,0
2018-08-06T02:06:59.050Z,0
2018-08-06T02:08:00.634Z,0
2018-08-06T02:09:02.164Z,0
2018-08-06T02:10:03.870Z,0
2018-08-06T02:11:05.391Z,0
2018-08-06T02:12:07.084Z,0
2018-08-06T02:13:08.651Z,0
2018-08-06T02:14:10.209Z,0
2018-08-06T02:15:11.818Z,0
2018-08-06T02:16:13.437Z,0
2018-08-06T02:17:15.010Z,0
2018-08-06T02:18:16.809Z,0
2018-08-06T02:19:18.346Z,0
2018-08-06T02:20:19.920Z,0
2018-08-06T02:21:21.798Z,0
2018-08-06T02:22:23.319Z,0
2018-08-06T02:23:24.895Z,0
2018-08-06T02:24:26.658Z,0
2018-08-06T02:25:28.151Z,0
2018-08-06T02:26:30.026Z,0
2018-08-06T02:27:31.583Z,0
2018-08-06T02:28:33.193Z,0
2018-08-06T02:29:34.923Z,0
2018-08-06T02:30:36.691Z,0
2018-08-06T02:31:38.238Z,0
2018-08-06T02:32:40.045Z,0
2018-08-06T02:33:41.553Z,0
2018-08-06T02:34:43.250Z,0
2018-08-06T02:35:44.800Z,0
2018-08-06T02:36:46.607Z,0
2018-08-06T02:37:48.153Z,0
2018-08-06T02:38:49.881Z,0
2018-08-06T02:39:51.390Z,0
2018-08-06T02:40:53.180Z,0
2018-08-06T02:41:54.754Z,0
2018-08-06T02:42:56.528Z,0
2018-08-06T02:43:58.101Z,0
2018-08-06T02:44:59.650Z,0
2018-08-06T02:46:01.414Z,0
2018-08-06T02:47:02.909Z,0
2018-08-06T02:48:04.444Z,0
2018-08-06T02:49:05.971Z,0
2018-08-06T02:50:07.378Z,0
2018-08-06T02:51:08.860Z,0
2018-08-06T02:52:10.272Z,0
2018-08-06T02:53:11.938Z,0
2018-08-06T02:54:13.478Z,0
2018-08-06T02:55:15.234Z,0
2018-08-06T02:56:16.742Z,0
2018-08-06T02:57:18.524Z,0
2018-08-06T02:58:20.047Z,0
2018-08-06T02:59:21.757Z,0
2018-08-06T03:00:23.327Z,0
2018-08-06T03:01:25.041Z,0
2018-08-06T03:02:26.609Z,0
2018-08-06T03:03:28.315Z,0
2018-08-06T03:04:29.835Z,0
2018-08-06T03:05:31.412Z,0
2018-08-06T03:06:33.079Z,0
2018-08-06T03:07:34.606Z,0
2018-08-06T03:08:36.114Z,0
2018-08-06T03:09:37.780Z,0
2018-08-06T03:10:39.332Z,0
2018-08-06T03:11:40.822Z,0
2018-08-06T03:12:42.591Z,0
2018-08-06T03:13:43.951Z,0
2018-08-06T03:14:45.357Z,0
2018-08-06T03:15:46.903Z,0
2018-08-06T03:18:07.391Z,0
2018-08-06T03:19:08.790Z,0
2018-08-06T03:20:10.190Z,0
2018-08-06T03:21:11.719Z,0
2018-08-06T03:22:13.120Z,0
2018-08-06T03:23:14.528Z,0
2018-08-06T03:24:16.057Z,0
2018-08-06T03:25:17.466Z,0
2018-08-06T03:26:19.127Z,0
2018-08-06T03:27:20.530Z,0
2018-08-06T03:28:22.009Z,0
2018-08-06T03:29:23.414Z,0
2018-08-06T03:30:33.637Z,0
2018-08-06T03:32:08.906Z,0
2018-08-06T03:33:10.432Z,0
2018-08-06T03:34:12.217Z,0
2018-08-06T03:35:13.792Z,0
2018-08-06T03:36:15.494Z,0
2018-08-06T03:37:17.068Z,0
2018-08-06T03:38:18.780Z,0
2018-08-06T03:39:20.370Z,0
2018-08-06T03:40:22.099Z,0
2018-08-06T03:41:23.663Z,0
2018-08-06T03:42:25.344Z,0
2018-08-06T03:43:26.911Z,0
2018-08-06T03:44:28.636Z,0
2018-08-06T03:45:30.239Z,0
2018-08-06T03:46:31.896Z,0
2018-08-06T03:47:33.464Z,0
2018-08-06T03:48:35.264Z,0
2018-08-06T03:49:36.777Z,0
2018-08-06T03:50:38.529Z,0
2018-08-06T03:51:40.111Z,0
2018-08-06T03:52:41.823Z,0
2018-08-06T03:53:43.362Z,0
2018-08-06T03:54:45.021Z,0
2018-08-06T03:55:46.551Z,0
2018-08-06T03:56:48.146Z,0
2018-08-06T03:57:49.688Z,0
2018-08-06T03:58:51.502Z,0
2018-08-06T03:59:53.131Z,0
2018-08-06T04:00:54.663Z,0
2018-08-06T04:01:56.417Z,0
2018-08-06T04:02:57.984Z,0
2018-08-06T04:03:59.533Z,0
2018-08-06T04:05:01.323Z,0
2018-08-06T04:06:02.874Z,0
2018-08-06T04:07:04.451Z,0
2018-08-06T04:08:06.319Z,0
2018-08-06T04:09:07.834Z,0
2018-08-06T04:10:09.387Z,0
2018-08-06T04:11:10.967Z,0
2018-08-06T04:12:12.563Z,0
2018-08-06T04:13:14.305Z,0
2018-08-06T04:14:15.688Z,0
2018-08-06T04:15:17.311Z,0
2018-08-06T04:16:18.917Z,0
2018-08-06T04:17:20.515Z,0
2018-08-06T04:18:22.353Z,0
2018-08-06T04:19:24.058Z,0
2018-08-06T04:20:25.595Z,0
2018-08-06T04:21:27.156Z,0
2018-08-06T04:22:28.777Z,0
2018-08-06T04:23:30.658Z,0
2018-08-06T04:24:32.245Z,0
2018-08-06T04:25:33.747Z,0
2018-08-06T04:26:35.481Z,0
2018-08-06T04:27:37.019Z,0
2018-08-06T04:28:38.487Z,0
2018-08-06T04:29:40.186Z,0
2018-08-06T04:30:41.756Z,0
2018-08-06T04:31:43.276Z,0
2018-08-06T04:32:44.974Z,5
2018-08-06T04:33:46.400Z,5
2018-08-06T04:34:47.955Z,5
2018-08-06T04:35:49.553Z,5
2018-08-06T04:36:51.255Z,5
2018-08-06T04:37:52.837Z,5
2018-08-06T04:38:54.513Z,5
2018-08-06T04:39:56.127Z,5
2018-08-06T04:40:57.853Z,5
2018-08-06T04:41:59.429Z,5
2018-08-06T04:43:01.056Z,5
2018-08-06T04:44:02.828Z,5
2018-08-06T04:45:04.455Z,5
2018-08-06T04:46:06.100Z,5
2018-08-06T04:47:07.769Z,5
2018-08-06T04:48:09.323Z,5
2018-08-06T04:49:10.909Z,5
2018-08-06T04:50:12.700Z,10
2018-08-06T04:51:14.252Z,10
2018-08-06T04:52:15.816Z,10
2018-08-06T04:53:17.419Z,10
2018-08-06T04:54:19.024Z,10
2018-08-06T04:55:20.518Z,10
2018-08-06T04:56:22.174Z,10
2018-08-06T04:57:23.835Z,10
2018-08-06T04:58:25.403Z,10
2018-08-06T04:59:27.059Z,10
2018-08-06T05:00:28.572Z,10
2018-08-06T05:01:30.282Z,10
2018-08-06T05:02:32.095Z,10
2018-08-06T05:03:33.691Z,10
2018-08-06T05:04:35.333Z,10
2018-08-06T05:05:36.887Z,10
2018-08-06T05:06:38.438Z,10
2018-08-06T05:07:40.057Z,10
2018-08-06T05:08:41.616Z,15
2018-08-06T05:09:43.173Z,15
2018-08-06T05:10:44.968Z,15
2018-08-06T05:11:46.568Z,15
2018-08-06T05:12:48.141Z,15
2018-08-06T05:13:49.917Z,15
2018-08-06T05:14:51.471Z,15
2018-08-06T05:15:53.024Z,15
2018-08-06T05:16:54.632Z,15
2018-08-06T05:17:56.195Z,15
2018-08-06T05:18:57.948Z,15
2018-08-06T05:19:59.513Z,15
2018-08-06T05:21:01.194Z,15
2018-08-06T05:22:02.792Z,15
2018-08-06T05:23:04.492Z,15
2018-08-06T05:24:06.068Z,20
2018-08-06T05:25:07.752Z,20
2018-08-06T05:26:09.305Z,20
2018-08-06T05:27:10.960Z,20
2018-08-06T05:28:12.477Z,20
2018-08-06T05:29:14.165Z,20
2018-08-06T05:30:15.702Z,20
2018-08-06T05:31:17.267Z,20
2018-08-06T05:32:18.918Z,20
2018-08-06T05:33:20.468Z,20
2018-08-06T05:34:22.123Z,20
2018-08-06T05:35:23.897Z,20
2018-08-06T05:36:25.507Z,20
2018-08-06T05:37:27.025Z,20
2018-08-06T05:38:28.608Z,20
2018-08-06T05:39:30.017Z,20
2018-08-06T05:40:31.640Z,20
2018-08-06T05:41:33.054Z,20
2018-08-06T05:42:34.572Z,20
2018-08-06T05:43:36.145Z,25
2018-08-06T05:44:37.781Z,25
2018-08-06T05:45:39.373Z,25
2018-08-06T05:46:41.118Z,25
2018-08-06T05:47:42.654Z,25
2018-08-06T05:48:44.411Z,25
2018-08-06T05:49:45.974Z,25
2018-08-06T05:50:47.651Z,25
2018-08-06T05:51:49.276Z,25
2018-08-06T05:52:50.800Z,25
2018-08-06T05:53:52.413Z,30
2018-08-06T05:54:54.007Z,30
2018-08-06T05:55:55.543Z,30
2018-08-06T05:56:57.126Z,30
2018-08-06T05:57:58.639Z,30
2018-08-06T05:59:00.204Z,30
2018-08-06T06:00:01.832Z,30
2018-08-06T06:01:03.526Z,30
2018-08-06T06:02:05.144Z,35
2018-08-06T06:03:06.827Z,35
2018-08-06T06:04:08.632Z,35
2018-08-06T06:05:10.348Z,35
2018-08-06T06:06:11.948Z,35
2018-08-06T06:07:13.605Z,35
2018-08-06T06:08:15.146Z,35
2018-08-06T06:09:16.868Z,35
2018-08-06T06:10:18.411Z,40
2018-08-06T06:11:19.995Z,40
2018-08-06T06:12:21.526Z,45
2018-08-06T06:13:23.290Z,45
2018-08-06T06:14:24.910Z,50
2018-08-06T06:15:26.561Z,50
2018-08-06T06:16:28.121Z,50
2018-08-06T06:17:29.853Z,55
2018-08-06T06:18:31.491Z,60
2018-08-06T06:19:33.115Z,60
2018-08-06T06:20:34.730Z,60
2018-08-06T06:21:36.419Z,60
2018-08-06T06:22:37.921Z,65
2018-08-06T06:23:39.512Z,65
2018-08-06T06:24:41.358Z,65
2018-08-06T06:25:43.076Z,65
2018-08-06T06:26:44.654Z,65
2018-08-06T06:27:46.279Z,70
2018-08-06T06:28:47.791Z,70
2018-08-06T06:29:49.328Z,70
2018-08-06T06:30:50.858Z,75
2018-08-06T06:31:53.475Z,80
2018-08-06T06:32:54.995Z,90
2018-08-06T06:33:56.574Z,95
2018-08-06T06:34:58.261Z,100
2018-08-06T06:35:59.872Z,105
2018-08-06T06:37:01.431Z,110
2018-08-06T06:38:03.028Z,120
2018-08-06T06:39:04.677Z,120
2018-08-06T06:40:06.191Z,120
2018-08-06T06:41:07.761Z,130
2018-08-06T06:42:09.267Z,130
2018-08-06T06:43:10.770Z,135
2018-08-06T06:44:12.342Z,135
2018-08-06T06:45:14.012Z,135
2018-08-06T06:46:15.623Z,135
2018-08-06T06:47:17.243Z,140
2018-08-06T06:48:19.010Z,140
2018-08-06T06:49:20.562Z,140
2018-08-06T06:50:22.283Z,145
2018-08-06T06:51:23.734Z,145
2018-08-06T06:52:25.328Z,145
2018-08-06T06:53:27.071Z,150
2018-08-06T06:54:28.650Z,150
2018-08-06T06:55:30.124Z,145
2018-08-06T06:56:31.761Z,150
2018-08-06T06:57:33.308Z,150
2018-08-06T06:58:34.890Z,150
2018-08-06T06:59:36.539Z,150
2018-08-06T07:00:38.103Z,155
2018-08-06T07:01:39.841Z,155
2018-08-06T07:02:41.401Z,155
2018-08-06T07:03:43.009Z,155
2018-08-06T07:04:44.725Z,155
2018-08-06T07:05:46.276Z,155
2018-08-06T07:06:47.856Z,155
2018-08-06T07:07:49.396Z,155
2018-08-06T07:08:51.012Z,160
2018-08-06T07:09:52.570Z,160
2018-08-06T07:10:54.229Z,160
2018-08-06T07:11:55.769Z,160
2018-08-06T07:12:57.362Z,165
2018-08-06T07:13:59.219Z,165
2018-08-06T07:15:00.779Z,165
2018-08-06T07:16:02.336Z,165
2018-08-06T07:17:04.492Z,170
2018-08-06T07:18:06.044Z,170
2018-08-06T07:19:07.541Z,170
2018-08-06T07:20:09.197Z,170
2018-08-06T07:21:10.725Z,175
2018-08-06T07:22:12.266Z,175
2018-08-06T07:23:14.944Z,175
2018-08-06T07:24:16.553Z,175
2018-08-06T07:25:18.116Z,180
2018-08-06T07:26:19.836Z,180
2018-08-06T07:27:21.450Z,180
2018-08-06T07:28:23.044Z,180
2018-08-06T07:29:24.773Z,180
2018-08-06T07:30:26.418Z,185
2018-08-06T07:31:27.899Z,185
2018-08-06T07:32:29.556Z,185
2018-08-06T07:33:31.094Z,185
2018-08-06T07:34:32.650Z,185
2018-08-06T07:35:34.266Z,190
2018-08-06T07:36:35.861Z,190
2018-08-06T07:37:37.453Z,190
2018-08-06T07:38:39.060Z,190
2018-08-06T07:39:40.605Z,190
2018-08-06T07:40:42.290Z,195
2018-08-06T07:41:43.863Z,195
2018-08-06T07:42:45.642Z,205
2018-08-06T07:43:47.236Z,195
2018-08-06T07:44:48.916Z,200
2018-08-06T07:45:50.506Z,200
2018-08-06T07:46:52.241Z,200
2018-08-06T07:47:53.775Z,205
2018-08-06T07:48:55.338Z,205
2018-08-06T07:49:56.987Z,205
2018-08-06T07:50:58.440Z,205
2018-08-06T07:51:59.933Z,210
2018-08-06T07:53:01.626Z,210
2018-08-06T07:54:03.176Z,210
2018-08-06T07:55:04.964Z,210
2018-08-06T07:56:06.580Z,210
2018-08-06T07:57:08.123Z,215
2018-08-06T07:58:09.739Z,215
2018-08-06T07:59:11.313Z,215
2018-08-06T08:00:12.804Z,215
2018-08-06T08:01:14.311Z,220
2018-08-06T08:02:15.997Z,220
2018-08-06T08:03:17.561Z,220
2018-08-06T08:04:19.171Z,220
2018-08-06T08:05:20.834Z,220
2018-08-06T08:06:22.423Z,220
2018-08-06T08:07:24.060Z,220
2018-08-06T08:08:25.632Z,225
2018-08-06T08:09:27.337Z,225
2018-08-06T08:10:28.905Z,225
2018-08-06T08:11:30.653Z,230
2018-08-06T08:12:32.150Z,230
2018-08-06T08:13:33.752Z,230
2018-08-06T08:14:35.377Z,235
2018-08-06T08:15:36.927Z,235
2018-08-06T08:16:38.476Z,235
2018-08-06T08:17:40.131Z,235
2018-08-06T08:18:41.721Z,240
2018-08-06T08:19:43.271Z,240
2018-08-06T08:20:44.849Z,240
2018-08-06T08:21:46.452Z,245
2018-08-06T08:22:48.042Z,245
2018-08-06T08:23:49.774Z,245
2018-08-06T08:24:51.351Z,245
2018-08-06T08:25:52.997Z,250
2018-08-06T08:26:54.577Z,250
2018-08-06T08:27:56.386Z,250
2018-08-06T08:28:57.961Z,250
2018-08-06T08:29:59.510Z,250
2018-08-06T08:31:01.125Z,250
2018-08-06T08:32:02.541Z,255
2018-08-06T08:33:03.960Z,255
2018-08-06T08:34:05.500Z,255
2018-08-06T08:35:06.893Z,260
2018-08-06T08:36:08.347Z,260
2018-08-06T08:37:09.929Z,265
2018-08-06T08:38:11.597Z,265
2018-08-06T08:39:13.236Z,265
2018-08-06T08:40:14.909Z,265
2018-08-06T08:41:16.517Z,265
2018-08-06T08:42:18.126Z,265
2018-08-06T08:43:19.734Z,265
2018-08-06T08:44:21.492Z,265
2018-08-06T08:45:23.206Z,265
2018-08-06T08:46:24.707Z,265
2018-08-06T08:47:26.316Z,270
2018-08-06T08:48:28.098Z,270
2018-08-06T08:49:29.684Z,270
2018-08-06T08:50:31.256Z,270
2018-08-06T08:51:32.968Z,275
2018-08-06T08:52:34.556Z,270
2018-08-06T08:53:36.095Z,270
2018-08-06T08:54:37.679Z,275
2018-08-06T08:55:39.080Z,280
2018-08-06T08:56:40.631Z,275
2018-08-06T08:57:42.208Z,275
2018-08-06T08:58:43.849Z,275
2018-08-06T08:59:45.292Z,280
2018-08-06T09:00:46.975Z,280
2018-08-06T09:01:48.537Z,280
2018-08-06T09:02:50.320Z,285
2018-08-06T09:03:51.865Z,295
2018-08-06T09:04:53.548Z,305
2018-08-06T09:05:55.098Z,315
2018-08-06T09:06:56.864Z,320
2018-08-06T09:07:58.388Z,315
2018-08-06T09:09:00.143Z,320
2018-08-06T09:10:01.722Z,320
2018-08-06T09:11:03.387Z,320
2018-08-06T09:12:08.565Z,325
2018-08-06T09:13:13.419Z,325
2018-08-06T09:14:15.600Z,330
2018-08-06T09:15:17.332Z,340
2018-08-06T09:16:18.911Z,335
2018-08-06T09:17:20.698Z,325
2018-08-06T09:18:22.227Z,270
2018-08-06T09:19:23.948Z,265
2018-08-06T09:20:25.504Z,205
2018-08-06T09:21:27.278Z,305
2018-08-06T09:22:28.769Z,260
2018-08-06T09:23:30.546Z,295
2018-08-06T09:24:32.064Z,295
2018-08-06T09:25:33.671Z,300
2018-08-06T09:26:35.161Z,300
2018-08-06T09:27:36.718Z,300
2018-08-06T09:28:38.304Z,290
2018-08-06T09:29:40.031Z,290
2018-08-06T09:30:41.605Z,280
2018-08-06T09:31:43.304Z,270
2018-08-06T09:32:44.883Z,280
2018-08-06T09:33:46.528Z,275
2018-08-06T09:34:48.204Z,275
2018-08-06T09:35:49.762Z,250
2018-08-06T09:36:51.269Z,265
2018-08-06T09:37:52.788Z,240
2018-08-06T09:38:54.432Z,235
2018-08-06T09:39:55.965Z,225
2018-08-06T09:40:57.572Z,180
2018-08-06T09:41:59.359Z,210
2018-08-06T09:43:00.918Z,180
2018-08-06T09:44:02.527Z,220
2018-08-06T09:45:04.249Z,220
2018-08-06T09:46:05.805Z,220
2018-08-06T09:47:07.401Z,215
2018-08-06T09:48:08.974Z,215
2018-08-06T09:49:10.383Z,215
2018-08-06T09:50:11.800Z,215
2018-08-06T09:51:13.354Z,215
2018-08-06T09:52:15.021Z,225
2018-08-06T09:53:16.642Z,245
2018-08-06T09:54:18.239Z,215
2018-08-06T09:55:19.777Z,225
2018-08-06T09:56:21.570Z,220
2018-08-06T09:57:23.113Z,230
2018-08-06T09:58:24.978Z,215
2018-08-06T09:59:26.515Z,220
2018-08-06T10:00:28.124Z,220
2018-08-06T10:01:29.835Z,225
2018-08-06T10:02:31.395Z,220
2018-08-06T10:03:32.943Z,225
2018-08-06T10:04:34.705Z,220
2018-08-06T10:05:36.298Z,225
2018-08-06T10:06:37.877Z,235
2018-08-06T10:07:39.368Z,250
2018-08-06T10:08:40.851Z,250
2018-08-06T10:09:42.425Z,275
2018-08-06T10:10:44.125Z,260
2018-08-06T10:11:45.686Z,250
2018-08-06T10:12:47.469Z,265
2018-08-06T10:13:49.012Z,325
2018-08-06T10:14:50.712Z,260
2018-08-06T10:15:52.232Z,260
2018-08-06T10:16:53.849Z,255
2018-08-06T10:17:55.447Z,250
2018-08-06T10:18:57.101Z,245
2018-08-06T10:19:58.624Z,235
2018-08-06T10:21:10.737Z,240
2018-08-06T10:22:12.601Z,235
2018-08-06T10:23:14.140Z,240
2018-08-06T10:24:15.680Z,250
2018-08-06T10:25:17.555Z,245
2018-08-06T10:26:19.135Z,240
2018-08-06T10:27:20.825Z,250
2018-08-06T10:28:22.339Z,260
2018-08-06T10:29:24.123Z,260
2018-08-06T10:30:25.859Z,265
2018-08-06T10:31:27.620Z,270
2018-08-06T10:32:29.215Z,270
2018-08-06T10:33:30.940Z,275
2018-08-06T10:34:32.519Z,275
2018-08-06T10:35:34.105Z,275
2018-08-06T10:36:35.884Z,270
2018-08-06T10:37:37.435Z,270
2018-08-06T10:38:39.034Z,300
2018-08-06T10:39:40.857Z,285
2018-08-06T10:40:42.352Z,295
2018-08-06T10:41:43.948Z,310
2018-08-06T10:42:45.775Z,320
2018-08-06T10:43:47.342Z,345
2018-08-06T10:44:49.010Z,320
2018-08-06T10:45:50.597Z,345
2018-08-06T10:46:52.248Z,390
2018-08-06T10:47:53.758Z,360
2018-08-06T10:48:55.591Z,390
2018-08-06T10:49:57.179Z,330
2018-08-06T10:50:58.844Z,355
2018-08-06T10:52:00.535Z,335
2018-08-06T10:53:02.142Z,485
2018-08-06T10:54:03.708Z,340
2018-08-06T10:55:05.449Z,395
2018-08-06T10:56:07.050Z,350
2018-08-06T10:57:08.633Z,335
2018-08-06T10:58:10.444Z,340
2018-08-06T10:59:11.967Z,330
2018-08-06T11:00:13.524Z,350
2018-08-06T11:01:15.379Z,330
2018-08-06T11:02:16.983Z,325
2018-08-06T11:03:18.652Z,315
2018-08-06T11:04:20.516Z,315
2018-08-06T11:05:22.078Z,315
2018-08-06T11:06:23.608Z,305
2018-08-06T11:07:25.391Z,300
2018-08-06T11:08:26.988Z,310
2018-08-06T11:09:28.525Z,275
2018-08-06T11:10:30.355Z,250
2018-08-06T11:11:31.909Z,230
2018-08-06T11:12:33.620Z,215
2018-08-06T11:13:35.233Z,220
2018-08-06T11:14:37.030Z,195
2018-08-06T11:15:38.665Z,215
2018-08-06T11:16:40.277Z,235
2018-08-06T11:17:42.110Z,240
2018-08-06T11:18:43.624Z,245
2018-08-06T11:19:45.243Z,250
2018-08-06T11:20:46.915Z,245
2018-08-06T11:21:48.483Z,230
2018-08-06T11:22:50.321Z,230
2018-08-06T11:23:51.872Z,230
2018-08-06T11:24:53.571Z,235
2018-08-06T11:25:55.186Z,235
2018-08-06T11:26:56.897Z,235
2018-08-06T11:27:58.429Z,235
2018-08-06T11:29:00.176Z,240
2018-08-06T11:30:01.610Z,265
2018-08-06T11:31:03.301Z,265
2018-08-06T11:32:04.743Z,250
2018-08-06T11:33:06.377Z,225
2018-08-06T11:34:07.824Z,210
2018-08-06T11:35:09.541Z,190
2018-08-06T11:36:11.128Z,175
2018-08-06T11:37:12.899Z,170
2018-08-06T11:38:14.468Z,165
2018-08-06T11:39:16.241Z,175
2018-08-06T11:40:17.917Z,170
2018-08-06T11:41:19.771Z,175
2018-08-06T11:42:21.365Z,185
2018-08-06T11:43:23.287Z,200
2018-08-06T11:44:24.916Z,215
2018-08-06T11:45:26.708Z,235
2018-08-06T11:46:28.278Z,245
2018-08-06T11:47:29.974Z,245
2018-08-06T11:48:31.577Z,245
2018-08-06T11:49:33.240Z,250
2018-08-06T11:50:34.826Z,255
2018-08-06T11:51:36.418Z,260
2018-08-06T11:52:38.200Z,265
2018-08-06T11:53:39.801Z,260
2018-08-06T11:54:41.390Z,260
2018-08-06T11:55:43.198Z,260
2018-08-06T11:56:44.883Z,260
2018-08-06T11:57:46.337Z,250
2018-08-06T11:58:48.073Z,235
2018-08-06T11:59:49.742Z,225
2018-08-06T12:00:51.348Z,225
2018-08-06T12:01:53.289Z,220
2018-08-06T12:02:54.644Z,230
2018-08-06T12:03:56.359Z,275
2018-08-06T12:04:58.005Z,315
2018-08-06T12:05:59.866Z,270
2018-08-06T12:07:01.472Z,235
2018-08-06T12:08:03.364Z,245
2018-08-06T12:09:05.025Z,260
2018-08-06T12:10:06.890Z,285
2018-08-06T12:11:08.405Z,310
2018-08-06T12:12:10.307Z,315
2018-08-06T12:13:11.893Z,310
2018-08-06T12:14:13.554Z,455
2018-08-06T12:15:15.191Z,950
2018-08-06T12:16:16.729Z,1325
2018-08-06T12:17:18.506Z,1120
2018-08-06T12:18:20.070Z,1220
2018-08-06T12:19:21.663Z,1325
2018-08-06T12:20:23.528Z,1310
2018-08-06T12:21:25.099Z,1220
2018-08-06T12:22:26.728Z,1310
2018-08-06T12:23:28.597Z,1315
2018-08-06T12:24:30.233Z,1320
2018-08-06T12:25:31.752Z,1275
2018-08-06T12:26:33.541Z,1335
2018-08-06T12:27:35.131Z,1225
2018-08-06T12:28:36.692Z,1180
2018-08-06T12:29:38.480Z,1135
2018-08-06T12:30:40.069Z,1055
2018-08-06T12:31:41.676Z,785
2018-08-06T12:32:43.459Z,510
2018-08-06T12:33:44.938Z,430
2018-08-06T12:34:46.522Z,385
2018-08-06T12:35:48.341Z,340
2018-08-06T12:36:49.944Z,295
2018-08-06T12:37:51.534Z,245
2018-08-06T12:38:53.303Z,210
2018-08-06T12:39:54.965Z,155
2018-08-06T12:40:56.821Z,125
2018-08-06T12:41:58.388Z,100
2018-08-06T12:43:00.290Z,85
2018-08-06T12:44:01.869Z,85
2018-08-06T12:45:03.610Z,80
2018-08-06T12:46:05.203Z,75
2018-08-06T12:47:07.058Z,70
2018-08-06T12:48:08.673Z,65
2018-08-06T12:49:10.358Z,65
2018-08-06T12:50:11.953Z,55
2018-08-06T12:51:13.683Z,55
2018-08-06T12:52:15.243Z,50
2018-08-06T12:53:16.892Z,50
2018-08-06T12:54:18.466Z,55
2018-08-06T12:55:20.221Z,55
2018-08-06T12:56:21.728Z,45
2018-08-06T12:57:23.291Z,55
2018-08-06T12:58:25.180Z,60
2018-08-06T12:59:26.706Z,55
2018-08-06T13:00:28.267Z,45
2018-08-06T13:01:30.068Z,50
2018-08-06T13:02:31.690Z,50
2018-08-06T13:03:33.280Z,50
2018-08-06T13:04:36.066Z,50
2018-08-06T13:05:37.597Z,45
2018-08-06T13:06:39.357Z,40
2018-08-06T13:07:40.918Z,40
2018-08-06T13:08:42.574Z,40
2018-08-06T13:09:44.184Z,40
2018-08-06T13:10:45.925Z,40
2018-08-06T13:11:47.461Z,40
2018-08-06T13:12:49.057Z,40
2018-08-06T13:13:50.871Z,40
2018-08-06T13:14:52.422Z,40
2018-08-06T13:15:53.996Z,40
2018-08-06T13:16:55.800Z,40
2018-08-06T13:17:57.421Z,40
2018-08-06T13:18:58.986Z,40
2018-08-06T13:20:00.707Z,35
2018-08-06T13:21:02.258Z,35
2018-08-06T13:22:03.887Z,35
2018-08-06T13:23:06.141Z,35
2018-08-06T13:24:07.740Z,35
2018-08-06T13:25:09.144Z,35
2018-08-06T13:26:10.963Z,35
2018-08-06T13:27:12.468Z,35
2018-08-06T13:28:14.018Z,35
2018-08-06T13:29:15.779Z,35
2018-08-06T13:30:17.280Z,35
2018-08-06T13:31:19.083Z,35
2018-08-06T13:32:20.573Z,35
2018-08-06T13:33:22.339Z,35
2018-08-06T13:34:23.931Z,35
2018-08-06T13:35:25.552Z,35
2018-08-06T13:36:27.142Z,35
2018-08-06T13:37:28.730Z,30
2018-08-06T13:38:30.597Z,30
2018-08-06T13:39:32.229Z,30
2018-08-06T13:40:33.715Z,30
2018-08-06T13:41:35.495Z,30
2018-08-06T13:42:37.006Z,30
2018-08-06T13:43:38.601Z,30
2018-08-06T13:44:40.383Z,30
2018-08-06T13:45:42.036Z,30
2018-08-06T13:46:43.789Z,30
2018-08-06T13:47:45.274Z,30
2018-08-06T13:48:46.894Z,30
2018-08-06T13:49:48.604Z,30
2018-08-06T13:50:50.000Z,30
2018-08-06T13:51:51.441Z,30
2018-08-06T13:52:53.091Z,30
2018-08-06T13:53:54.760Z,30
2018-08-06T13:54:56.312Z,30
2018-08-06T13:55:58.166Z,30
2018-08-06T13:56:59.572Z,30
2018-08-06T13:58:01.154Z,30
2018-08-06T13:59:02.835Z,30
2018-08-06T14:00:04.255Z,30
2018-08-06T14:01:06.187Z,30
2018-08-06T14:02:07.747Z,30
2018-08-06T14:03:09.320Z,30
2018-08-06T14:04:10.895Z,30
2018-08-06T14:05:12.338Z,25
2018-08-06T14:06:13.970Z,25
2018-08-06T14:07:15.787Z,25
2018-08-06T14:08:17.363Z,25
2018-08-06T14:09:18.759Z,25
2018-08-06T14:10:20.358Z,25
2018-08-06T14:11:21.846Z,25
2018-08-06T14:12:23.252Z,25
2018-08-06T14:13:24.871Z,25
2018-08-06T14:14:26.281Z,25
2018-08-06T14:15:28.146Z,25
2018-08-06T14:16:30.273Z,25
2018-08-06T14:17:32.126Z,25
2018-08-06T14:18:33.745Z,25
2018-08-06T14:19:35.359Z,25
2018-08-06T14:20:37.470Z,25
2018-08-06T14:21:39.085Z,25
2018-08-06T14:22:40.654Z,25
2018-08-06T14:23:42.306Z,25
2018-08-06T14:24:43.746Z,25
2018-08-06T14:25:45.468Z,25
2018-08-06T14:26:46.900Z,25
2018-08-06T14:27:48.530Z,25
2018-08-06T14:28:49.960Z,25
2018-08-06T14:29:51.613Z,25
2018-08-06T14:30:53.052Z,25
2018-08-06T14:31:54.807Z,25
2018-08-06T14:32:56.157Z,25
2018-08-06T14:33:57.790Z,25
2018-08-06T14:34:59.202Z,25
2018-08-06T14:36:00.878Z,25
2018-08-06T14:37:02.441Z,25
2018-08-06T14:38:03.981Z,25